Time;durP1;ratioP1;P1;durP2;ratioP2;P2;SDS_P1;SDS_P2;PMS_P1;PMS_P2;Temp;Humidity;BMP_temperature;BMP_pressure;BME280_temperature;BME280_humidity;BME280_pressure;Samples;Min_cycle;Max_cycle;Signal;HPM_P1;HPM_P2
2022/09/17 00:00:49;;;;;;;7.60;1.23;;;11.10;99.90;;;;;;5035947;28;20428;-57
2022/09/17 00:03:14;;;;;;;13.65;1.20;;;11.10;99.90;;;;;;5035874;28;20040;-58
2022/09/17 00:05:40;;;;;;;10.10;1.67;;;11.10;99.90;;;;;;5035847;28;20390;-57
2022/09/17 00:08:09;;;;;;;9.73;1.83;;;11.20;99.90;;;;;;5036317;28;20018;-58
2022/09/17 00:10:40;;;;;;;7.65;1.27;;;11.20;99.90;;;;;;5036014;28;20053;-58
2022/09/17 00:13:06;;;;;;;6.18;1.10;;;11.20;99.90;;;;;;5036412;28;20037;-57
2022/09/17 00:15:31;;;;;;;8.35;1.88;;;11.20;99.90;;;;;;5036894;28;20398;-57
2022/09/17 00:17:57;;;;;;;6.45;1.02;;;11.30;99.90;;;;;;5036870;28;20025;-57
2022/09/17 00:20:25;;;;;;;9.05;1.05;;;11.30;99.90;;;;;;5052242;28;20033;-56
2022/09/17 00:22:51;;;;;;;10.48;1.45;;;11.50;99.90;;;;;;5038242;28;20085;-56
2022/09/17 00:25:16;;;;;;;6.90;1.27;;;11.50;99.90;;;;;;5051037;28;20049;-55
2022/09/17 00:27:42;;;;;;;6.10;1.15;;;11.60;99.90;;;;;;5036394;28;20029;-55
2022/09/17 00:30:09;;;;;;;9.07;1.48;;;11.60;99.90;;;;;;5037172;28;20056;-59
2022/09/17 00:32:34;;;;;;;6.18;1.23;;;11.60;99.90;;;;;;5036315;28;20091;-58
2022/09/17 00:35:00;;;;;;;9.93;1.42;;;11.70;99.90;;;;;;5034673;28;20029;-60
2022/09/17 00:37:25;;;;;;;5.50;1.13;;;11.70;99.90;;;;;;5034683;28;20033;-60
2022/09/17 00:39:51;;;;;;;8.70;1.10;;;11.70;99.90;;;;;;5034993;28;20033;-61
2022/09/17 00:42:18;;;;;;;9.02;1.90;;;11.80;99.90;;;;;;5034159;28;20018;-61
2022/09/17 00:44:48;;;;;;;12.18;1.42;;;11.90;99.90;;;;;;5034501;28;20408;-61
2022/09/17 00:47:19;;;;;;;8.80;1.70;;;11.80;99.90;;;;;;5034210;28;20025;-60
2022/09/17 00:49:47;;;;;;;10.98;1.80;;;11.80;99.90;;;;;;5034244;28;20139;-61
2022/09/17 00:52:17;;;;;;;11.10;1.98;;;11.80;99.90;;;;;;5049399;28;20060;-61
2022/09/17 00:54:51;;;;;;;13.00;1.80;;;11.70;99.90;;;;;;5034128;28;20246;-60
2022/09/17 00:57:17;;;;;;;9.50;1.50;;;11.60;99.90;;;;;;5034465;28;20117;-61
2022/09/17 00:59:43;;;;;;;13.20;2.10;;;11.60;99.90;;;;;;5034286;28;20029;-60
2022/09/17 01:02:09;;;;;;;8.02;1.38;;;11.60;99.90;;;;;;5049385;28;20045;-60
2022/09/17 01:04:34;;;;;;;12.25;2.17;;;11.70;99.90;;;;;;5032737;28;20112;-59
2022/09/17 01:07:25;;;;;;;11.35;1.75;;;11.60;99.90;;;;;;5034184;28;20041;-60
2022/09/17 01:10:24;;;;;;;13.75;1.73;;;11.60;99.90;;;;;;5049556;28;20029;-62
2022/09/17 01:13:16;;;;;;;11.95;2.00;;;11.70;99.90;;;;;;5049689;28;20041;-62
2022/09/17 01:15:54;;;;;;;10.25;1.42;;;11.60;99.90;;;;;;5028664;28;20053;-62
2022/09/17 01:18:44;;;;;;;12.90;1.60;;;11.60;99.90;;;;;;5034015;28;20061;-61
2022/09/17 01:21:32;;;;;;;9.40;1.60;;;11.60;99.90;;;;;;5033772;28;20029;-61
2022/09/17 01:24:21;;;;;;;11.23;1.80;;;11.60;99.90;;;;;;5033493;28;20079;-61
2022/09/17 01:27:17;;;;;;;11.43;2.03;;;11.60;99.90;;;;;;5033439;28;20029;-61
2022/09/17 01:29:54;;;;;;;9.85;1.95;;;11.60;99.90;;;;;;5033785;28;20038;-60
2022/09/17 01:32:29;;;;;;;13.70;1.65;;;11.60;99.90;;;;;;5033535;28;20112;-59
2022/09/17 01:35:00;;;;;;;7.90;1.40;;;11.60;99.90;;;;;;5033830;28;20032;-59
2022/09/17 01:37:31;;;;;;;10.20;1.67;;;11.60;99.90;;;;;;5033440;28;20501;-59
2022/09/17 01:40:23;;;;;;;12.35;2.00;;;11.60;99.90;;;;;;5034276;28;20108;-58
2022/09/17 01:43:09;;;;;;;9.98;1.90;;;11.60;99.90;;;;;;5049132;28;20447;-58
2022/09/17 01:45:49;;;;;;;12.45;1.83;;;11.60;99.90;;;;;;5032943;28;20120;-60
2022/09/17 01:48:23;;;;;;;14.20;1.90;;;11.50;99.90;;;;;;5033147;28;20033;-61
2022/09/17 01:50:51;;;;;;;12.40;1.95;;;11.50;99.90;;;;;;5048596;28;20056;-61
2022/09/17 01:53:21;;;;;;;9.85;1.50;;;11.50;99.90;;;;;;5033127;28;20033;-60
2022/09/17 01:55:50;;;;;;;12.13;2.00;;;11.50;99.90;;;;;;5033455;28;20028;-59
2022/09/17 01:58:22;;;;;;;16.27;2.15;;;11.60;99.90;;;;;;5033258;28;20034;-58
2022/09/17 02:00:55;;;;;;;9.77;2.55;;;11.50;99.90;;;;;;5032998;28;20019;-58
2022/09/17 02:03:31;;;;;;;13.98;2.28;;;11.60;99.90;;;;;;5033238;28;20035;-58
2022/09/17 02:06:29;;;;;;;15.60;2.25;;;11.60;99.90;;;;;;5033375;28;20029;-58
2022/09/17 02:09:10;;;;;;;13.27;2.13;;;11.60;99.90;;;;;;5033931;28;20029;-57
2022/09/17 02:11:40;;;;;;;13.18;2.25;;;11.50;99.90;;;;;;5034102;28;20056;-56
2022/09/17 02:14:12;;;;;;;16.42;2.83;;;11.50;99.90;;;;;;5034355;28;20028;-57
2022/09/17 02:16:45;;;;;;;13.68;2.28;;;11.50;99.90;;;;;;5034736;28;20022;-56
2022/09/17 02:19:23;;;;;;;13.93;2.10;;;11.40;99.90;;;;;;5035446;28;20024;-56
2022/09/17 02:22:10;;;;;;;21.25;2.15;;;11.50;99.90;;;;;;5034827;28;20051;-55
2022/09/17 02:25:07;;;;;;;19.13;2.15;;;11.30;99.90;;;;;;5033229;28;20052;-56
2022/09/17 02:27:58;;;;;;;11.77;1.90;;;11.20;99.90;;;;;;5033929;28;20026;-55
2022/09/17 02:30:24;;;;;;;11.07;1.80;;;11.10;99.90;;;;;;5027230;28;20505;-55
2022/09/17 02:32:50;;;;;;;19.38;2.97;;;11.10;99.90;;;;;;5034481;28;20030;-55
2022/09/17 02:35:16;;;;;;;19.55;2.40;;;11.10;99.90;;;;;;5035006;28;20032;-55
2022/09/17 02:37:43;;;;;;;22.30;2.75;;;11.00;99.90;;;;;;5034849;28;20474;-55
2022/09/17 02:40:12;;;;;;;16.20;1.98;;;11.00;99.90;;;;;;5034713;28;20441;-55
2022/09/17 02:43:06;;;;;;;19.20;2.67;;;11.00;99.90;;;;;;5034621;28;20108;-55
2022/09/17 02:45:40;;;;;;;17.23;2.50;;;10.90;99.90;;;;;;5034588;28;20498;-56
2022/09/17 02:48:41;;;;;;;15.50;2.38;;;10.90;99.90;;;;;;5034926;28;20151;-55
2022/09/17 02:51:19;;;;;;;16.77;2.47;;;10.80;99.90;;;;;;5035003;28;20030;-55
2022/09/17 02:54:24;;;;;;;13.55;2.42;;;10.70;99.90;;;;;;5034645;28;20034;-55
2022/09/17 02:57:11;;;;;;;16.45;1.98;;;10.70;99.90;;;;;;5034460;28;20032;-55
2022/09/17 02:59:55;;;;;;;18.88;2.42;;;10.60;99.90;;;;;;5034420;28;20144;-55
2022/09/17 03:02:27;;;;;;;14.95;2.55;;;10.70;99.90;;;;;;5033826;28;20052;-55
2022/09/17 03:04:54;;;;;;;18.40;2.10;;;10.60;99.90;;;;;;5034593;28;20036;-55
2022/09/17 03:07:22;;;;;;;19.95;1.88;;;10.60;99.90;;;;;;5034755;28;20030;-56
2022/09/17 03:09:48;;;;;;;19.42;2.65;;;10.60;99.90;;;;;;5034431;28;20176;-55
2022/09/17 03:12:14;;;;;;;21.17;2.67;;;10.60;99.90;;;;;;5034632;28;20026;-56
2022/09/17 03:14:39;;;;;;;19.67;2.20;;;10.50;99.90;;;;;;5034371;28;20022;-55
2022/09/17 03:17:05;;;;;;;20.38;2.75;;;10.50;99.90;;;;;;5033866;28;20030;-55
2022/09/17 03:19:31;;;;;;;17.13;2.45;;;10.50;99.90;;;;;;5034837;28;20125;-55
2022/09/17 03:21:57;;;;;;;19.80;2.55;;;10.50;99.90;;;;;;5034775;28;20021;-55
2022/09/17 03:24:22;;;;;;;24.95;3.03;;;10.40;99.90;;;;;;5033929;28;20512;-55
2022/09/17 03:26:48;;;;;;;22.08;2.88;;;10.40;99.90;;;;;;5049224;28;20044;-55
2022/09/17 03:29:14;;;;;;;21.98;2.55;;;10.40;99.90;;;;;;5033759;28;20022;-55
2022/09/17 03:31:40;;;;;;;19.20;3.33;;;10.40;99.90;;;;;;5033276;28;20113;-55
2022/09/17 03:34:06;;;;;;;17.90;3.03;;;10.50;99.90;;;;;;5032816;28;20029;-55
2022/09/17 03:36:32;;;;;;;17.33;2.90;;;10.50;99.90;;;;;;5032923;28;20025;-55
2022/09/17 03:38:58;;;;;;;27.95;3.92;;;10.50;99.90;;;;;;5033337;28;20064;-55
2022/09/17 03:41:25;;;;;;;18.83;2.72;;;10.40;99.90;;;;;;5033238;28;20037;-55
2022/09/17 03:43:50;;;;;;;18.70;3.47;;;10.50;99.90;;;;;;5033077;28;20390;-55
2022/09/17 03:46:16;;;;;;;27.30;4.07;;;10.50;99.90;;;;;;5033071;28;20055;-54
2022/09/17 03:48:42;;;;;;;18.38;2.63;;;10.60;99.90;;;;;;5033089;28;20025;-54
2022/09/17 03:51:11;;;;;;;21.55;3.33;;;10.60;99.90;;;;;;5033330;28;20086;-53
2022/09/17 03:53:36;;;;;;;24.75;3.50;;;10.70;99.90;;;;;;5032679;28;20040;-54
2022/09/17 03:56:04;;;;;;;19.35;2.60;;;10.80;99.90;;;;;;5032835;28;20026;-53
2022/09/17 03:58:30;;;;;;;25.25;3.60;;;10.80;99.90;;;;;;5033281;28;20026;-54
2022/09/17 04:00:56;;;;;;;26.95;3.53;;;10.90;99.90;;;;;;5033899;28;20030;-55
2022/09/17 04:03:26;;;;;;;27.15;2.90;;;10.90;99.90;;;;;;5034427;28;20057;-55
2022/09/17 04:05:53;;;;;;;19.23;2.72;;;10.90;99.90;;;;;;5033589;28;20096;-55
2022/09/17 04:08:19;;;;;;;23.52;3.28;;;11.00;99.90;;;;;;5033410;28;20030;-56
2022/09/17 04:10:45;;;;;;;16.65;3.13;;;11.10;99.90;;;;;;5031386;28;20041;-57
2022/09/17 04:13:12;;;;;;;18.35;2.67;;;11.00;99.90;;;;;;5030949;28;20022;-58
2022/09/17 04:15:38;;;;;;;17.08;3.08;;;11.00;99.90;;;;;;5030537;28;20029;-59
2022/09/17 04:18:04;;;;;;;15.43;2.92;;;11.00;99.90;;;;;;5030929;28;20036;-59
2022/09/17 04:20:30;;;;;;;21.45;3.20;;;11.00;99.90;;;;;;5046186;28;20025;-57
2022/09/17 04:22:56;;;;;;;18.88;3.25;;;11.00;99.90;;;;;;5031985;28;20025;-57
2022/09/17 04:25:22;;;;;;;14.98;2.25;;;11.10;99.90;;;;;;5032663;28;20028;-57
2022/09/17 04:27:48;;;;;;;15.30;2.47;;;11.10;99.90;;;;;;5032150;28;20068;-57
2022/09/17 04:30:14;;;;;;;18.73;2.50;;;11.10;99.90;;;;;;5034556;28;20044;-57
2022/09/17 04:32:40;;;;;;;13.77;2.58;;;11.10;99.90;;;;;;5035872;28;20411;-56
2022/09/17 04:35:07;;;;;;;14.55;2.95;;;11.00;99.90;;;;;;5036360;28;20485;-57
2022/09/17 04:37:33;;;;;;;21.10;3.13;;;11.00;99.90;;;;;;5036363;28;20029;-55
2022/09/17 04:39:58;;;;;;;21.25;2.78;;;11.00;99.90;;;;;;5037543;28;20052;-56
2022/09/17 04:42:24;;;;;;;18.27;2.70;;;11.00;99.90;;;;;;5036945;28;20069;-56
2022/09/17 04:44:50;;;;;;;22.48;2.95;;;11.00;99.90;;;;;;5036503;28;20030;-56
2022/09/17 04:47:15;;;;;;;22.75;3.28;;;11.00;99.90;;;;;;5036510;28;20033;-56
2022/09/17 04:49:41;;;;;;;19.17;3.20;;;11.00;99.90;;;;;;5051827;28;20104;-55
2022/09/17 04:52:07;;;;;;;21.48;3.38;;;11.00;99.90;;;;;;5036868;28;20025;-55
2022/09/17 04:54:32;;;;;;;17.45;2.75;;;10.90;99.90;;;;;;5036882;28;20013;-55
2022/09/17 04:56:59;;;;;;;12.98;2.10;;;10.90;99.90;;;;;;5036862;28;20037;-55
2022/09/17 04:59:25;;;;;;;14.73;2.88;;;10.80;99.90;;;;;;5037447;28;20018;-55
2022/09/17 05:01:50;;;;;;;14.18;2.30;;;10.90;99.90;;;;;;5036654;28;20045;-55
2022/09/17 05:04:16;;;;;;;14.48;2.30;;;10.80;99.90;;;;;;5052490;28;20029;-55
2022/09/17 05:06:41;;;;;;;15.52;1.90;;;10.80;99.90;;;;;;5035853;28;20074;-53
2022/09/17 05:09:07;;;;;;;17.20;2.40;;;10.90;99.90;;;;;;5035814;28;20428;-53
2022/09/17 05:11:33;;;;;;;11.13;2.10;;;11.00;99.90;;;;;;5035411;28;20038;-53
2022/09/17 05:13:59;;;;;;;8.27;2.15;;;11.00;99.90;;;;;;5035935;28;20394;-54
2022/09/17 05:16:24;;;;;;;14.63;2.08;;;11.00;99.90;;;;;;5036101;28;20030;-54
2022/09/17 05:18:50;;;;;;;14.35;1.92;;;11.00;99.90;;;;;;5035858;28;20072;-54
2022/09/17 05:21:17;;;;;;;12.57;2.20;;;11.00;99.90;;;;;;5035089;28;20037;-54
2022/09/17 05:23:42;;;;;;;11.50;2.55;;;10.90;99.90;;;;;;5035268;28;20064;-54
2022/09/17 05:26:08;;;;;;;12.15;2.35;;;10.90;99.90;;;;;;5034877;28;20071;-54
2022/09/17 05:28:34;;;;;;;13.90;2.15;;;10.80;99.90;;;;;;5035854;28;20386;-53
2022/09/17 05:31:00;;;;;;;15.27;2.25;;;10.80;99.90;;;;;;5035293;28;20033;-54
2022/09/17 05:33:26;;;;;;;12.18;1.92;;;10.80;99.90;;;;;;5035407;28;20034;-54
2022/09/17 05:35:52;;;;;;;13.05;2.40;;;10.70;99.90;;;;;;5035655;28;20144;-54
2022/09/17 05:38:18;;;;;;;14.23;2.60;;;10.80;99.90;;;;;;5036005;28;20025;-54
2022/09/17 05:40:44;;;;;;;14.25;2.47;;;10.80;99.90;;;;;;5034045;28;20038;-54
2022/09/17 05:43:10;;;;;;;12.32;2.30;;;10.80;99.90;;;;;;5035614;28;20441;-54
2022/09/17 05:45:37;;;;;;;14.65;2.00;;;10.90;99.90;;;;;;5035196;28;20094;-55
2022/09/17 05:48:05;;;;;;;17.35;2.38;;;11.00;99.90;;;;;;5034988;28;20013;-55
2022/09/17 05:50:31;;;;;;;19.17;2.30;;;11.00;99.90;;;;;;5034898;28;20503;-55
2022/09/17 05:53:04;;;;;;;10.85;2.20;;;11.00;99.90;;;;;;5035108;28;20040;-55
2022/09/17 05:55:30;;;;;;;11.98;1.88;;;11.10;99.90;;;;;;5035171;28;20033;-55
2022/09/17 05:57:56;;;;;;;14.65;1.90;;;11.10;99.90;;;;;;5034905;28;20429;-54
2022/09/17 06:00:21;;;;;;;14.95;2.25;;;11.10;99.90;;;;;;5034882;28;20021;-54
2022/09/17 06:02:54;;;;;;;10.63;2.30;;;11.20;99.90;;;;;;5034460;28;20108;-54
2022/09/17 06:05:19;;;;;;;15.25;2.50;;;11.30;99.90;;;;;;5035261;28;20516;-55
2022/09/17 06:07:48;;;;;;;10.90;1.77;;;11.40;99.90;;;;;;5034467;28;20034;-55
2022/09/17 06:10:14;;;;;;;9.95;1.75;;;11.40;99.90;;;;;;5034319;28;20083;-55
2022/09/17 06:12:40;;;;;;;12.70;2.38;;;11.40;99.90;;;;;;5034652;28;20110;-55
2022/09/17 06:15:13;;;;;;;12.50;1.95;;;11.50;99.90;;;;;;5034795;28;20036;-55
2022/09/17 06:17:39;;;;;;;7.75;1.67;;;11.40;99.90;;;;;;5035554;28;20030;-55
2022/09/17 06:20:05;;;;;;;9.93;1.92;;;11.50;99.90;;;;;;5034220;28;20028;-55
2022/09/17 06:22:31;;;;;;;9.43;1.88;;;11.60;99.90;;;;;;5035006;28;20025;-54
2022/09/17 06:24:58;;;;;;;10.98;1.77;;;11.60;99.90;;;;;;5034314;28;20466;-54
2022/09/17 06:27:30;;;;;;;8.20;1.75;;;11.60;99.90;;;;;;5034468;28;20102;-55
2022/09/17 06:29:55;;;;;;;12.03;1.73;;;11.70;99.90;;;;;;5035183;28;20445;-55
2022/09/17 06:32:21;;;;;;;7.78;1.80;;;11.70;99.90;;;;;;5035517;28;20052;-55
2022/09/17 06:34:47;;;;;;;13.75;1.83;;;11.90;99.90;;;;;;5035782;28;20026;-55
2022/09/17 06:37:13;;;;;;;7.97;1.75;;;11.90;99.90;;;;;;5035730;28;20038;-55
2022/09/17 06:39:39;;;;;;;12.20;1.70;;;11.90;99.90;;;;;;5036011;28;20029;-56
2022/09/17 06:42:05;;;;;;;8.40;1.58;;;12.00;99.90;;;;;;5035776;28;20021;-55
2022/09/17 06:44:30;;;;;;;11.18;1.65;;;12.10;99.90;;;;;;5035756;28;20567;-55
2022/09/17 06:46:56;;;;;;;11.50;1.63;;;12.20;99.90;;;;;;5035166;28;20109;-56
2022/09/17 06:49:23;;;;;;;10.15;1.67;;;12.50;99.90;;;;;;5035657;28;20394;-56
2022/09/17 06:51:49;;;;;;;5.05;1.75;;;12.60;99.90;;;;;;5032515;28;20525;-62
2022/09/17 06:54:14;;;;;;;10.23;1.70;;;12.50;99.90;;;;;;5032189;28;20171;-60
2022/09/17 06:56:40;;;;;;;9.65;2.15;;;12.50;99.90;;;;;;5032149;28;20028;-61
2022/09/17 06:59:06;;;;;;;10.77;1.95;;;12.40;99.90;;;;;;5032133;28;20032;-62
2022/09/17 07:01:31;;;;;;;6.88;1.40;;;12.30;99.90;;;;;;5032391;28;20044;-60
2022/09/17 07:03:57;;;;;;;10.77;1.85;;;12.20;99.90;;;;;;5047399;28;20122;-60
2022/09/17 07:06:23;;;;;;;6.93;1.80;;;12.20;99.90;;;;;;5031730;28;20107;-60
2022/09/17 07:08:49;;;;;;;10.85;2.03;;;12.00;99.90;;;;;;5031977;28;20076;-60
2022/09/17 07:11:17;;;;;;;8.45;1.40;;;12.00;99.90;;;;;;5046843;28;20083;-60
2022/09/17 07:13:43;;;;;;;11.27;1.63;;;12.00;99.90;;;;;;5032174;28;20060;-58
2022/09/17 07:16:09;;;;;;;6.97;1.35;;;12.20;99.90;;;;;;5032252;28;20420;-58
2022/09/17 07:18:34;;;;;;;9.20;1.52;;;12.30;99.90;;;;;;5033440;28;20033;-58
2022/09/17 07:21:04;;;;;;;7.32;1.15;;;12.50;99.90;;;;;;5033344;28;20021;-56
2022/09/17 07:23:34;;;;;;;10.20;1.55;;;12.80;99.90;;;;;;5033746;28;20026;-57
2022/09/17 07:26:03;;;;;;;7.63;1.40;;;13.30;99.90;;;;;;5033756;28;20021;-57
2022/09/17 07:28:29;;;;;;;7.18;1.50;;;13.50;99.90;;;;;;5035259;28;20033;-56
2022/09/17 07:30:55;;;;;;;10.52;1.73;;;13.50;99.90;;;;;;5034674;28;20029;-56
2022/09/17 07:33:23;;;;;;;11.18;1.33;;;13.60;99.90;;;;;;5033851;28;20029;-56
2022/09/17 07:36:22;;;;;;;6.18;1.13;;;13.70;99.90;;;;;;5035196;28;20048;-55
2022/09/17 07:38:48;;;;;;;7.82;1.60;;;13.80;99.90;;;;;;5033704;28;20049;-55
2022/09/17 07:41:17;;;;;;;5.82;1.25;;;14.00;99.90;;;;;;5051314;28;20382;-55
2022/09/17 07:43:43;;;;;;;7.90;1.55;;;14.00;99.90;;;;;;5035019;28;20048;-55
2022/09/17 07:46:17;;;;;;;7.07;1.00;;;14.10;99.90;;;;;;5035286;28;20032;-56
2022/09/17 07:48:42;;;;;;;7.25;1.33;;;15.00;99.90;;;;;;5034762;28;20108;-56
2022/09/17 07:51:14;;;;;;;5.43;1.10;;;16.10;99.90;;;;;;5032683;28;20060;-57
2022/09/17 07:53:40;;;;;;;4.85;1.05;;;16.50;99.90;;;;;;5034205;28;20064;-56
2022/09/17 07:56:07;;;;;;;8.15;1.75;;;16.10;99.90;;;;;;5034955;28;20026;-55
2022/09/17 07:58:35;;;;;;;7.95;1.20;;;15.70;99.90;;;;;;5034490;28;20131;-55
2022/09/17 08:01:07;;;;;;;7.43;0.93;;;15.00;99.90;;;;;;5033600;28;20568;-55
2022/09/17 08:03:33;;;;;;;6.00;1.08;;;14.90;99.90;;;;;;5034668;28;20033;-55
2022/09/17 08:06:07;;;;;;;7.85;0.95;;;14.60;99.90;;;;;;5037727;28;20488;-55
2022/09/17 08:08:34;;;;;;;4.05;1.20;;;14.20;99.90;;;;;;5036055;28;20033;-60
2022/09/17 08:11:07;;;;;;;3.30;0.90;;;13.90;99.90;;;;;;5035721;28;20391;-60
2022/09/17 08:13:33;;;;;;;6.93;1.55;;;13.70;99.90;;;;;;5035684;28;20106;-58
2022/09/17 08:16:01;;;;;;;4.50;0.98;;;13.70;99.90;;;;;;5036139;28;20538;-58
2022/09/17 08:18:27;;;;;;;6.70;1.17;;;13.80;99.90;;;;;;5036246;28;20036;-57
2022/09/17 08:20:58;;;;;;;6.07;1.05;;;14.60;99.90;;;;;;5036578;28;20022;-57
2022/09/17 08:23:24;;;;;;;5.40;0.93;;;16.00;99.90;;;;;;5036861;28;20079;-57
2022/09/17 08:25:58;;;;;;;5.43;1.05;;;16.60;99.90;;;;;;5037533;28;20500;-56
2022/09/17 08:28:25;;;;;;;6.55;0.90;;;16.40;99.90;;;;;;5038067;28;20061;-56
2022/09/17 08:30:52;;;;;;;3.47;0.63;;;16.60;99.90;;;;;;5053221;28;20105;-56
2022/09/17 08:33:18;;;;;;;3.85;0.77;;;17.00;99.90;;;;;;5036694;28;20071;-56
2022/09/17 08:35:58;;;;;;;3.75;0.70;;;17.20;99.90;;;;;;5037237;28;20482;-56
2022/09/17 08:38:27;;;;;;;6.38;1.15;;;17.00;99.90;;;;;;5038018;28;20508;-56
2022/09/17 08:41:13;;;;;;;4.32;1.00;;;16.60;99.90;;;;;;5037811;28;20099;-56
2022/09/17 08:43:45;;;;;;;6.60;1.40;;;15.80;99.90;;;;;;5038191;28;20401;-55
2022/09/17 08:46:11;;;;;;;5.32;1.08;;;15.30;99.90;;;;;;5037272;28;20029;-56
2022/09/17 08:48:43;;;;;;;4.97;1.35;;;14.90;99.90;;;;;;5036841;28;20057;-56
2022/09/17 08:51:32;;;;;;;4.55;1.63;;;14.70;99.90;;;;;;5051767;28;20498;-58
2022/09/17 08:54:25;;;;;;;5.50;1.60;;;14.60;99.90;;;;;;5036676;28;20120;-57
2022/09/17 08:57:00;;;;;;;;;;;14.70;99.90;;;;;;5037204;28;20025;-56
2022/09/17 08:59:52;;;;;;;8.95;0.93;;;14.60;99.90;;;;;;5037887;28;20337;-56
2022/09/17 09:02:54;;;;;;;5.63;0.88;;;14.60;99.90;;;;;;5036314;28;20073;-55
2022/09/17 09:05:25;;;;;;;5.50;0.82;;;14.90;99.90;;;;;;5036869;28;20025;-56
2022/09/17 09:07:56;;;;;;;6.28;0.98;;;16.40;99.90;;;;;;5036545;28;20034;-56
2022/09/17 09:10:36;;;;;;;3.85;0.88;;;17.60;99.90;;;;;;5050557;28;20033;-57
2022/09/17 09:13:04;;;;;;;4.13;0.75;;;18.00;99.90;;;;;;5037069;28;20029;-56
2022/09/17 09:15:42;;;;;;;3.75;0.90;;;17.90;99.90;;;;;;5035356;28;20025;-56
2022/09/17 09:18:27;;;;;;;8.30;1.17;;;17.80;99.90;;;;;;5036591;28;20033;-59
2022/09/17 09:21:06;;;;;;;3.80;0.85;;;18.00;99.90;;;;;;5037584;28;20051;-56
2022/09/17 09:23:50;;;;;;;5.68;0.82;;;17.50;99.90;;;;;;5037470;28;20108;-57
2022/09/17 09:26:18;;;;;;;4.78;0.60;;;16.90;99.90;;;;;;5051652;28;20028;-56
2022/09/17 09:29:03;;;;;;;6.05;0.82;;;16.40;99.90;;;;;;5036650;28;20075;-55
2022/09/17 09:31:56;;;;;;;4.78;0.68;;;15.90;99.90;;;;;;5035740;28;20026;-56
2022/09/17 09:34:24;;;;;;;3.95;0.93;;;15.60;99.90;;;;;;5036014;28;20108;-56
2022/09/17 09:36:51;;;;;;;5.32;1.15;;;15.60;99.90;;;;;;5036768;28;20108;-55
2022/09/17 09:39:24;;;;;;;6.45;1.02;;;15.50;99.90;;;;;;5036466;28;20017;-56
2022/09/17 09:42:30;;;;;;;6.60;1.00;;;15.30;99.90;;;;;;5036008;28;20033;-58
2022/09/17 09:45:03;;;;;;;4.10;0.93;;;14.80;99.90;;;;;;5033734;28;20029;-58
2022/09/17 09:47:38;;;;;;;4.65;0.77;;;14.70;99.90;;;;;;5033861;28;20401;-59
2022/09/17 09:50:30;;;;;;;3.33;0.75;;;14.50;99.90;;;;;;5033419;28;20181;-60
2022/09/17 09:53:21;;;;;;;3.65;0.77;;;14.50;99.90;;;;;;5049052;28;20128;-61
2022/09/17 09:56:11;;;;;;;1.95;0.40;;;14.10;99.90;;;;;;5033547;28;20669;-61
2022/09/17 09:58:39;;;;;;;6.35;0.82;;;13.90;99.90;;;;;;5049264;28;20025;-60
2022/09/17 10:01:16;;;;;;;3.17;0.57;;;13.80;99.90;;;;;;5032934;28;20091;-60
2022/09/17 10:03:44;;;;;;;2.05;0.50;;;13.80;99.90;;;;;;5032877;28;20116;-59
2022/09/17 10:06:11;;;;;;;2.75;0.50;;;13.80;99.90;;;;;;5031608;28;20076;-60
2022/09/17 10:08:40;;;;;;;4.03;0.85;;;13.60;99.90;;;;;;5033155;28;20048;-60
2022/09/17 10:11:20;;;;;;;2.33;0.70;;;13.40;99.90;;;;;;5032547;28;20036;-60
2022/09/17 10:13:46;;;;;;;5.10;1.40;;;13.30;99.90;;;;;;5033013;28;20174;-58
2022/09/17 10:16:16;;;;;;;6.50;1.88;;;13.20;99.90;;;;;;5032965;28;20059;-60
2022/09/17 10:18:43;;;;;;;2.60;1.02;;;13.20;99.90;;;;;;5032691;28;20459;-60
2022/09/17 10:21:32;;;;;;;1.73;0.40;;;13.10;99.90;;;;;;5048061;28;20683;-60
2022/09/17 10:24:00;;;;;;;1.75;0.50;;;12.90;99.90;;;;;;5032999;28;20040;-59
2022/09/17 10:26:28;;;;;;;2.30;0.90;;;12.70;99.90;;;;;;5032108;28;20604;-58
2022/09/17 10:29:02;;;;;;;1.88;0.50;;;12.70;99.90;;;;;;5032858;28;20044;-60
2022/09/17 10:31:52;;;;;;;3.75;0.88;;;12.80;99.90;;;;;;5032509;28;20041;-60
2022/09/17 10:34:26;;;;;;;2.95;0.90;;;12.90;99.90;;;;;;5047972;28;20504;-59
2022/09/17 10:36:54;;;;;;;3.75;1.48;;;13.00;99.90;;;;;;5032764;28;20044;-59
2022/09/17 10:39:25;;;;;;;4.95;1.65;;;13.00;99.90;;;;;;5032640;28;20045;-59
2022/09/17 10:42:11;;;;;;;4.45;1.83;;;13.10;99.90;;;;;;5047526;28;20036;-61
2022/09/17 10:44:48;;;;;;;6.30;1.80;;;13.20;99.90;;;;;;5032438;28;20597;-60
2022/09/17 10:47:21;;;;;;;3.83;1.30;;;13.20;99.90;;;;;;5032157;28;20045;-60
2022/09/17 10:49:56;;;;;;;4.30;1.30;;;13.30;99.90;;;;;;5032833;28;20022;-60
2022/09/17 10:52:45;;;;;;;4.05;1.10;;;13.40;99.90;;;;;;5032211;28;20040;-61
2022/09/17 10:55:32;;;;;;;5.47;1.50;;;13.50;99.90;;;;;;5031979;28;20080;-62
2022/09/17 10:58:07;;;;;;;3.28;0.90;;;13.50;99.90;;;;;;5032117;28;20061;-60
2022/09/17 11:00:32;;;;;;;6.47;1.58;;;13.60;99.90;;;;;;5032441;28;20103;-59
2022/09/17 11:03:13;;;;;;;8.57;1.60;;;13.80;99.90;;;;;;5032303;28;20491;-58
2022/09/17 11:05:54;;;;;;;5.00;1.52;;;14.00;99.90;;;;;;5032399;28;20570;-57
2022/09/17 11:08:58;;;;;;;5.45;1.05;;;14.30;99.90;;;;;;5048877;28;20099;-56
2022/09/17 11:11:36;;;;;;;6.60;1.50;;;14.30;99.90;;;;;;5034960;28;20457;-56
2022/09/17 11:14:26;;;;;;;6.53;1.42;;;14.30;99.90;;;;;;5034404;28;20021;-55
2022/09/17 11:17:21;;;;;;;4.35;1.27;;;14.10;99.90;;;;;;5032678;28;20025;-57
2022/09/17 11:20:20;;;;;;;4.05;1.00;;;14.00;99.90;;;;;;5032445;28;20031;-57
2022/09/17 11:23:12;;;;;;;2.33;0.85;;;14.10;99.90;;;;;;5032851;28;20029;-57
2022/09/17 11:25:57;;;;;;;3.75;0.98;;;14.40;99.90;;;;;;5016623;28;20057;-58
2022/09/17 11:28:56;;;;;;;6.68;1.42;;;14.60;99.90;;;;;;5034620;28;20390;-56
2022/09/17 11:31:53;;;;;;;3.78;0.90;;;14.40;99.90;;;;;;5035954;28;20105;-56
2022/09/17 11:34:38;;;;;;;4.57;1.15;;;14.50;99.90;;;;;;5035579;28;20178;-56
2022/09/17 11:37:34;;;;;;;5.53;1.23;;;14.50;99.90;;;;;;5034665;28;20030;-56
2022/09/17 11:40:04;;;;;;;7.35;1.23;;;15.20;99.90;;;;;;5032824;28;20580;-56
2022/09/17 11:42:47;;;;;;;8.77;1.25;;;16.30;99.90;;;;;;5033528;28;20049;-56
2022/09/17 11:45:15;;;;;;;4.70;1.20;;;17.60;99.90;;;;;;5034909;28;20503;-56
2022/09/17 11:47:48;;;;;;;4.13;1.00;;;18.50;99.90;;;;;;5034280;28;20041;-56
2022/09/17 11:50:22;;;;;;;3.20;1.10;;;20.00;99.90;;;;;;5032856;28;20034;-56
2022/09/17 11:53:24;;;;;;;6.28;1.33;;;20.30;99.90;;;;;;5034566;28;20033;-56
2022/09/17 11:55:57;;;;;;;4.40;1.30;;;21.00;99.90;;;;;;5033096;28;20060;-56
2022/09/17 11:58:43;;;;;;;8.05;1.88;;;20.40;99.90;;;;;;5032962;28;20473;-56
2022/09/17 12:01:24;;;;;;;8.77;2.45;;;19.20;99.90;;;;;;5033677;28;20053;-57
2022/09/17 12:03:56;;;;;;;8.23;1.80;;;18.20;99.90;;;;;;5031607;28;20109;-61
2022/09/17 12:06:34;;;;;;;9.18;1.63;;;17.30;99.90;;;;;;5030908;28;20029;-61
2022/09/17 12:09:16;;;;;;;8.40;1.40;;;16.80;99.90;;;;;;5032649;28;20029;-58
2022/09/17 12:12:00;;;;;;;7.30;1.33;;;16.40;99.90;;;;;;5032145;28;20029;-58
2022/09/17 12:14:38;;;;;;;7.05;1.27;;;16.80;99.90;;;;;;5032126;28;20033;-57
2022/09/17 12:17:05;;;;;;;6.32;1.20;;;18.20;99.90;;;;;;5033690;28;20080;-57
2022/09/17 12:19:41;;;;;;;7.18;2.35;;;19.20;99.90;;;;;;5033444;28;20079;-56
2022/09/17 12:22:19;;;;;;;6.13;1.40;;;19.70;99.90;;;;;;5032949;28;20032;-56
2022/09/17 12:24:45;;;;;;;11.52;2.20;;;19.90;99.90;;;;;;5031391;28;20026;-56
2022/09/17 12:27:41;;;;;;;9.43;1.95;;;20.00;99.90;;;;;;5032991;28;20569;-56
2022/09/17 12:30:13;;;;;;;7.57;2.10;;;20.60;99.90;;;;;;5033248;28;20096;-56
2022/09/17 12:32:55;;;;;;;13.93;2.80;;;20.20;99.90;;;;;;5033899;28;20033;-56
2022/09/17 12:35:36;;;;;;;;;;;19.80;99.90;;;;;;5033903;28;20034;-56
2022/09/17 12:38:20;;;;;;;4.60;1.20;;;19.90;99.90;;;;;;5033166;28;19913;-56
2022/09/17 12:41:12;;;;;;;6.57;1.67;;;20.20;99.90;;;;;;5032778;28;20544;-56
2022/09/17 12:44:14;;;;;;;6.97;2.10;;;20.80;99.90;;;;;;5033383;28;20116;-56
2022/09/17 12:47:01;;;;;;;7.35;1.58;;;20.80;99.90;;;;;;5033648;28;20113;-56
2022/09/17 12:49:53;;;;;;;9.02;2.40;;;20.50;99.90;;;;;;5033531;28;20029;-56
2022/09/17 12:52:37;;;;;;;;;;;20.90;99.90;;;;;;5037842;28;20029;-56
2022/09/17 12:55:22;;;;;;;7.40;1.67;;;21.70;99.90;;;;;;5036967;28;19916;-56
2022/09/17 12:58:06;;;;;;;8.73;1.58;;;21.80;99.90;;;;;;5037033;28;20037;-55
2022/09/17 13:01:02;;;;;;;9.25;1.95;;;22.00;99.90;;;;;;5036953;28;20389;-55
2022/09/17 13:03:46;;;;;;;8.32;1.58;;;21.30;99.90;;;;;;5051621;28;20030;-58
2022/09/17 13:06:44;;;;;;;5.10;1.45;;;21.60;99.90;;;;;;5036557;28;20496;-56
2022/09/17 13:09:34;;;;;;;5.55;1.55;;;22.10;99.90;;;;;;5015367;28;20068;-56
2022/09/17 13:12:03;;;;;;;7.80;1.50;;;22.30;99.90;;;;;;5035942;28;20448;-57
2022/09/17 13:14:58;;;;;;;8.38;1.70;;;21.80;99.90;;;;;;5051528;28;20053;-56